createdAt,value
2022-12-27T00:02:18.505Z,1.08
2022-12-27T00:04:45.372Z,1.02
2022-12-27T00:07:12.441Z,1.35
2022-12-27T00:09:39.265Z,1.10
2022-12-27T00:12:06.305Z,0.98
2022-12-27T00:14:33.177Z,1.30
2022-12-27T00:16:59.966Z,1.15
2022-12-27T00:19:26.690Z,1.80
2022-12-27T00:21:53.531Z,1.02
2022-12-27T00:24:20.511Z,1.00
2022-12-27T00:26:47.391Z,1.45
2022-12-27T00:29:14.173Z,1.55
2022-12-27T00:31:42.084Z,1.20
2022-12-27T00:34:08.973Z,1.38
2022-12-27T00:36:35.870Z,1.50
2022-12-27T00:39:02.977Z,1.27
2022-12-27T00:41:29.787Z,1.35
2022-12-27T00:43:56.906Z,1.35
2022-12-27T00:46:23.816Z,1.45
2022-12-27T00:48:50.617Z,1.40
2022-12-27T00:51:23.816Z,1.83
2022-12-27T00:53:52.496Z,1.27
2022-12-27T00:56:25.451Z,1.63
2022-12-27T00:58:54.295Z,1.60
2022-12-27T01:01:23.659Z,1.65
2022-12-27T01:03:50.885Z,1.63
2022-12-27T01:06:23.428Z,1.30
2022-12-27T01:08:50.909Z,1.27
2022-12-27T01:11:18.359Z,1.67
2022-12-27T01:13:46.005Z,1.70
2022-12-27T01:16:21.907Z,1.55
2022-12-27T01:18:49.608Z,1.35
2022-12-27T01:21:19.283Z,1.65
2022-12-27T01:23:46.680Z,1.45
2022-12-27T01:26:18.417Z,1.80
2022-12-27T01:28:46.216Z,1.48
2022-12-27T01:31:19.751Z,1.55
2022-12-27T01:33:46.645Z,1.27
2022-12-27T01:36:22.857Z,1.65
2022-12-27T01:38:50.284Z,1.42
2022-12-27T01:44:35.663Z,1.30
2022-12-27T01:47:04.320Z,1.48
2022-12-27T01:49:31.517Z,2.05
2022-12-27T01:51:58.856Z,1.70
2022-12-27T01:54:25.814Z,1.52
2022-12-27T01:56:54.309Z,1.90
2022-12-27T01:59:21.385Z,1.67
2022-12-27T02:01:49.279Z,1.65
2022-12-27T02:04:20.382Z,1.50
2022-12-27T02:06:48.131Z,1.40
2022-12-27T02:09:38.299Z,1.30
2022-12-27T02:12:08.106Z,1.20
2022-12-27T02:14:44.239Z,1.27
2022-12-27T02:17:17.016Z,1.50
2022-12-27T02:20:04.960Z,1.80
2022-12-27T02:26:16.092Z,1.95
2022-12-27T02:29:09.177Z,1.35
2022-12-27T02:31:43.533Z,1.98
2022-12-27T02:34:26.316Z,1.08
2022-12-27T02:36:59.980Z,2.53
2022-12-27T02:39:29.242Z,1.23
2022-12-27T02:42:16.194Z,1.70
2022-12-27T02:45:01.671Z,1.60
2022-12-27T02:47:48.267Z,1.30
2022-12-27T02:50:34.349Z,1.48
2022-12-27T02:53:18.126Z,1.67
2022-12-27T02:56:31.613Z,2.03
2022-12-27T02:59:30.568Z,1.67
2022-12-27T03:02:44.282Z,1.48
2022-12-27T03:05:40.118Z,1.65
2022-12-27T03:08:17.563Z,1.30
2022-12-27T03:11:11.391Z,1.85
2022-12-27T03:14:04.993Z,1.40
2022-12-27T03:16:55.815Z,1.67
2022-12-27T03:20:01.312Z,1.50
2022-12-27T03:22:48.415Z,1.30
2022-12-27T03:25:28.678Z,1.30
2022-12-27T03:28:38.717Z,1.80
2022-12-27T03:31:37.624Z,1.48
2022-12-27T03:34:28.861Z,1.70
2022-12-27T03:37:15.920Z,1.60
2022-12-27T03:39:52.319Z,1.73
2022-12-27T03:42:43.585Z,1.30
2022-12-27T03:45:10.833Z,1.60
2022-12-27T03:48:03.937Z,2.07
2022-12-27T03:50:44.751Z,2.47
2022-12-27T03:53:21.004Z,1.75
2022-12-27T03:55:48.826Z,3.70
2022-12-27T03:58:15.811Z,1.50
2022-12-27T04:00:42.632Z,1.88
2022-12-27T04:03:09.420Z,1.65
2022-12-27T04:05:36.248Z,1.73
2022-12-27T04:08:21.486Z,1.77
2022-12-27T04:11:07.072Z,1.90
2022-12-27T04:13:53.323Z,1.60
2022-12-27T04:16:38.677Z,1.55
2022-12-27T04:19:24.065Z,1.83
2022-12-27T04:22:09.317Z,1.60
2022-12-27T04:24:54.678Z,2.33
2022-12-27T04:27:40.054Z,1.40
2022-12-27T04:30:25.964Z,1.55
2022-12-27T04:33:11.135Z,1.55
2022-12-27T04:35:37.969Z,1.35
2022-12-27T04:38:04.745Z,1.40
2022-12-27T04:40:50.068Z,1.38
2022-12-27T04:43:35.555Z,1.63
2022-12-27T04:46:21.078Z,1.13
2022-12-27T04:49:06.771Z,1.60
2022-12-27T04:51:52.051Z,1.30
2022-12-27T04:54:41.617Z,1.20
2022-12-27T04:57:08.517Z,1.30
2022-12-27T04:59:53.914Z,1.35
2022-12-27T05:02:21.510Z,1.40
2022-12-27T05:04:48.967Z,1.40
2022-12-27T05:07:35.137Z,1.30
2022-12-27T05:10:22.516Z,1.15
2022-12-27T05:13:07.762Z,1.25
2022-12-27T05:15:34.544Z,1.30
2022-12-27T05:18:01.383Z,1.40
2022-12-27T05:20:28.121Z,1.58
2022-12-27T05:23:13.750Z,1.33
2022-12-27T05:25:42.454Z,1.50
2022-12-27T05:28:11.520Z,1.42
2022-12-27T05:30:40.470Z,1.60
2022-12-27T05:33:07.739Z,1.42
2022-12-27T05:35:36.082Z,1.30
2022-12-27T05:38:03.417Z,1.48
2022-12-27T05:40:30.268Z,1.58
2022-12-27T05:43:01.043Z,1.00
2022-12-27T05:45:28.429Z,1.38
2022-12-27T05:47:55.332Z,1.52
2022-12-27T05:50:22.323Z,2.13
2022-12-27T05:52:50.548Z,1.55
2022-12-27T05:55:17.646Z,1.70
2022-12-27T05:57:44.415Z,1.50
2022-12-27T06:00:11.853Z,1.35
2022-12-27T06:02:42.327Z,1.45
2022-12-27T06:05:10.450Z,1.70
2022-12-27T06:07:38.468Z,1.60
2022-12-27T06:10:10.960Z,2.08
2022-12-27T06:12:38.091Z,2.15
2022-12-27T06:15:06.993Z,1.35
2022-12-27T06:17:34.106Z,1.40
2022-12-27T06:20:00.847Z,1.30
2022-12-27T06:22:27.727Z,1.60
2022-12-27T06:24:55.702Z,1.45
2022-12-27T06:27:22.506Z,1.48
2022-12-27T06:29:49.245Z,1.42
2022-12-27T06:32:17.710Z,1.40
2022-12-27T06:34:45.560Z,1.60
2022-12-27T06:37:12.557Z,1.60
2022-12-27T06:39:39.298Z,1.50
2022-12-27T06:42:06.053Z,1.10
2022-12-27T06:44:32.862Z,2.05
2022-12-27T06:46:59.633Z,2.00
2022-12-27T06:49:26.726Z,1.70
2022-12-27T06:51:59.310Z,1.48
2022-12-27T06:54:26.815Z,1.50
2022-12-27T06:56:53.771Z,2.05
2022-12-27T06:59:20.571Z,1.85
2022-12-27T07:01:47.457Z,1.88
2022-12-27T07:04:14.334Z,1.52
2022-12-27T07:06:41.326Z,1.80
2022-12-27T07:09:08.759Z,1.98
2022-12-27T07:11:37.082Z,2.75
2022-12-27T07:14:04.835Z,1.55
2022-12-27T07:16:31.884Z,1.60
2022-12-27T07:18:59.747Z,1.30
2022-12-27T07:21:28.673Z,1.40
2022-12-27T07:23:56.106Z,1.30
2022-12-27T07:26:29.930Z,1.38
2022-12-27T07:28:59.718Z,1.48
2022-12-27T07:31:29.764Z,1.73
2022-12-27T07:33:57.903Z,1.33
2022-12-27T07:36:28.580Z,1.70
2022-12-27T07:38:55.979Z,1.42
2022-12-27T07:41:23.267Z,1.55
2022-12-27T07:43:50.317Z,1.83
2022-12-27T07:46:22.986Z,2.08
2022-12-27T07:48:50.205Z,1.40
2022-12-27T07:51:17.669Z,1.57
2022-12-27T07:53:44.866Z,1.48
2022-12-27T07:56:25.742Z,1.23
2022-12-27T07:58:54.788Z,1.50
2022-12-27T08:03:56.541Z,1.40
2022-12-27T08:06:33.524Z,1.20
2022-12-27T08:09:04.704Z,1.37
2022-12-27T08:11:31.583Z,1.27
2022-12-27T08:13:58.628Z,1.35
2022-12-27T08:16:26.554Z,1.23
2022-12-27T08:18:54.036Z,1.38
2022-12-27T08:21:21.068Z,1.65
2022-12-27T08:23:47.925Z,1.77
2022-12-27T08:26:15.353Z,1.30
2022-12-27T08:28:42.291Z,1.35
2022-12-27T08:31:11.055Z,1.95
2022-12-27T08:33:39.175Z,1.52
2022-12-27T08:43:49.176Z,1.50
2022-12-27T08:46:16.093Z,1.52
2022-12-27T08:48:43.597Z,1.50
2022-12-27T08:51:13.673Z,1.50
2022-12-27T08:53:40.641Z,1.52
2022-12-27T08:56:07.975Z,1.85
2022-12-27T08:58:34.799Z,1.35
2022-12-27T09:01:06.536Z,1.83
2022-12-27T09:03:33.768Z,1.65
2022-12-27T09:06:15.656Z,1.42
2022-12-27T09:08:44.452Z,1.50
2022-12-27T09:11:29.699Z,1.27
2022-12-27T09:13:58.895Z,1.90
2022-12-27T09:16:29.377Z,1.85
2022-12-27T09:18:57.982Z,1.27
2022-12-27T09:21:27.386Z,1.20
2022-12-27T09:23:54.784Z,1.27
2022-12-27T09:26:24.287Z,1.33
2022-12-27T09:28:51.323Z,1.60
2022-12-27T09:31:19.592Z,1.23
2022-12-27T09:33:46.555Z,1.48
2022-12-27T09:36:16.277Z,1.60
2022-12-27T09:38:44.245Z,1.75
2022-12-27T09:41:40.856Z,1.50
2022-12-27T09:44:14.881Z,1.63
2022-12-27T09:46:52.285Z,1.77
2022-12-27T09:49:30.475Z,1.33
2022-12-27T09:52:10.584Z,1.58
2022-12-27T09:54:53.078Z,1.33
2022-12-27T09:57:33.969Z,1.65
2022-12-27T10:00:05.667Z,1.20
2022-12-27T10:02:34.419Z,1.70
2022-12-27T10:08:00.281Z,2.40
2022-12-27T10:11:08.377Z,1.65
2022-12-27T10:13:54.470Z,1.80
2022-12-27T10:16:40.408Z,1.50
2022-12-27T10:19:52.900Z,1.80
2022-12-27T10:23:15.260Z,1.80
2022-12-27T10:25:46.159Z,1.58
2022-12-27T10:28:22.857Z,1.85
2022-12-27T10:30:49.714Z,1.95
2022-12-27T10:33:21.180Z,1.60
2022-12-27T10:35:48.835Z,1.40
2022-12-27T10:38:15.791Z,1.70
2022-12-27T10:40:57.526Z,1.60
2022-12-27T10:43:33.561Z,1.65
2022-12-27T10:46:20.892Z,1.60
2022-12-27T10:49:21.103Z,2.00
2022-12-27T10:51:49.836Z,2.13
2022-12-27T10:54:23.769Z,1.65
2022-12-27T10:56:50.871Z,1.83
2022-12-27T10:59:22.845Z,1.58
2022-12-27T11:02:02.578Z,1.45
2022-12-27T11:04:31.004Z,1.88
2022-12-27T11:09:29.587Z,2.15
2022-12-27T11:12:24.782Z,1.95
2022-12-27T11:15:00.838Z,1.73
2022-12-27T11:17:52.996Z,2.20
2022-12-27T11:20:19.867Z,1.83
2022-12-27T11:22:55.865Z,1.58
2022-12-27T11:25:23.144Z,1.77
2022-12-27T11:27:57.194Z,1.70
2022-12-27T11:30:39.969Z,1.80
2022-12-27T11:33:17.345Z,1.50
2022-12-27T11:35:52.568Z,1.98
2022-12-27T11:38:29.512Z,1.90
2022-12-27T11:41:08.102Z,3.08
2022-12-27T11:43:45.431Z,2.25
2022-12-27T11:46:38.967Z,1.60
2022-12-27T11:49:13.765Z,1.60
2022-12-27T11:52:08.653Z,2.30
2022-12-27T11:55:22.972Z,1.85
2022-12-27T11:57:52.860Z,1.90
2022-12-27T12:00:22.088Z,2.20
2022-12-27T12:03:13.456Z,1.88
2022-12-27T12:05:58.668Z,1.77
2022-12-27T12:09:10.719Z,2.20
2022-12-27T12:11:54.479Z,2.25
2022-12-27T12:15:02.092Z,1.70
2022-12-27T12:17:58.697Z,2.10
2022-12-27T12:20:35.915Z,1.80
2022-12-27T12:23:12.175Z,2.15
2022-12-27T12:25:47.705Z,2.05
2022-12-27T12:28:58.088Z,2.00
2022-12-27T12:31:36.428Z,2.00
2022-12-27T12:34:19.509Z,2.13
2022-12-27T12:36:55.106Z,1.90
2022-12-27T12:39:39.505Z,1.58
2022-12-27T12:42:31.320Z,2.00
2022-12-27T12:45:45.692Z,2.13
2022-12-27T12:48:43.219Z,1.80
2022-12-27T12:51:38.940Z,2.13
2022-12-27T12:54:34.507Z,2.22
2022-12-27T12:57:26.337Z,1.83
2022-12-27T13:00:09.020Z,2.05
2022-12-27T13:03:13.943Z,1.80
2022-12-27T13:06:05.297Z,2.03
2022-12-27T13:08:51.568Z,1.77
2022-12-27T13:11:36.945Z,1.90
2022-12-27T13:14:12.011Z,2.10
2022-12-27T13:17:09.513Z,2.03
2022-12-27T13:19:39.383Z,1.92
2022-12-27T13:22:40.781Z,2.13
2022-12-27T13:25:55.386Z,1.70
2022-12-27T13:28:40.587Z,1.77
2022-12-27T13:31:24.940Z,2.20
2022-12-27T13:34:01.438Z,2.53
2022-12-27T13:36:46.590Z,1.80
2022-12-27T13:39:25.991Z,2.50
2022-12-27T13:42:31.732Z,2.03
2022-12-27T13:45:21.469Z,2.17
2022-12-27T13:47:56.196Z,2.63
2022-12-27T13:50:38.041Z,2.00
2022-12-27T13:53:29.396Z,1.75
2022-12-27T13:56:53.888Z,1.90
2022-12-27T13:59:39.714Z,2.10
2022-12-27T14:02:31.333Z,1.90
2022-12-27T14:05:00.988Z,1.73
2022-12-27T14:07:58.150Z,1.90
2022-12-27T14:11:00.212Z,1.90
2022-12-27T14:13:38.061Z,1.92
2022-12-27T14:16:28.065Z,1.63
2022-12-27T14:19:15.969Z,2.00
2022-12-27T14:24:27.251Z,2.00
2022-12-27T14:27:06.391Z,2.33
2022-12-27T14:30:07.269Z,2.85
2022-12-27T14:32:43.746Z,1.85
2022-12-27T14:35:34.962Z,2.08
2022-12-27T14:38:36.699Z,2.00
2022-12-27T14:41:37.060Z,2.47
2022-12-27T14:44:26.121Z,2.10
2022-12-27T14:47:13.240Z,2.10
2022-12-27T14:50:04.598Z,2.83
2022-12-27T14:52:50.369Z,2.65
2022-12-27T14:55:26.248Z,2.58
2022-12-27T14:58:30.295Z,2.70
2022-12-27T15:01:18.622Z,2.85
2022-12-27T15:04:00.148Z,2.40
2022-12-27T15:06:33.255Z,2.78
2022-12-27T15:09:35.779Z,2.83
2022-12-27T15:12:21.995Z,2.85
2022-12-27T15:15:27.609Z,3.10
2022-12-27T15:18:16.375Z,3.00
2022-12-27T15:21:08.260Z,3.97
2022-12-27T15:23:53.369Z,3.20
2022-12-27T15:26:41.278Z,2.90
2022-12-27T15:29:35.558Z,2.92
2022-12-27T15:32:34.336Z,2.83
2022-12-27T15:35:16.082Z,2.70
2022-12-27T15:37:53.683Z,2.60
2022-12-27T15:40:32.715Z,2.47
2022-12-27T15:43:14.732Z,2.65
2022-12-27T15:46:06.615Z,2.53
2022-12-27T15:48:57.579Z,2.35
2022-12-27T15:51:42.265Z,2.55
2022-12-27T15:54:27.429Z,2.55
2022-12-27T15:57:20.554Z,2.67
2022-12-27T15:59:51.128Z,2.33
2022-12-27T16:02:18.090Z,2.25
2022-12-27T16:04:53.943Z,2.60
2022-12-27T16:07:43.878Z,2.20
2022-12-27T16:10:29.579Z,2.13
2022-12-27T16:13:04.836Z,2.03
2022-12-27T16:15:35.037Z,2.40
2022-12-27T16:18:03.859Z,2.45
2022-12-27T16:20:32.308Z,2.30
2022-12-27T16:23:06.163Z,2.40
2022-12-27T16:25:38.900Z,2.13
2022-12-27T16:28:25.020Z,2.30
2022-12-27T16:30:57.900Z,2.38
2022-12-27T16:33:38.381Z,3.08
2022-12-27T16:36:23.545Z,2.20
2022-12-27T16:39:25.753Z,2.42
2022-12-27T16:41:56.626Z,2.53
2022-12-27T16:44:24.267Z,2.90
2022-12-27T16:46:55.059Z,3.38
2022-12-27T16:49:34.035Z,3.60
2022-12-27T16:52:14.510Z,3.35
2022-12-27T16:55:03.216Z,3.40
2022-12-27T16:57:44.959Z,3.47
2022-12-27T17:00:12.160Z,4.00
2022-12-27T17:02:42.183Z,4.20
2022-12-27T17:05:15.240Z,5.10
2022-12-27T17:07:54.087Z,4.60
2022-12-27T17:10:58.333Z,5.22
2022-12-27T17:13:49.636Z,5.10
2022-12-27T17:16:26.976Z,5.32
2022-12-27T17:19:02.670Z,4.97
2022-12-27T17:21:38.244Z,7.30
2022-12-27T17:24:12.509Z,7.70
2022-12-27T17:26:57.863Z,6.90
2022-12-27T17:29:43.435Z,5.43
2022-12-27T17:32:45.146Z,5.65
2022-12-27T17:35:42.853Z,5.45
2022-12-27T17:41:15.397Z,5.57
2022-12-27T17:44:23.665Z,6.00
2022-12-27T17:49:43.244Z,6.22
2022-12-27T17:52:35.123Z,7.50
2022-12-27T17:55:36.109Z,7.05
2022-12-27T17:58:06.739Z,7.10
2022-12-27T18:00:36.810Z,7.05
2022-12-27T18:03:09.013Z,6.28
2022-12-27T18:05:41.721Z,6.32
2022-12-27T18:08:28.860Z,6.10
2022-12-27T18:11:03.202Z,6.05
2022-12-27T18:13:37.701Z,5.38
2022-12-27T18:16:37.741Z,5.68
2022-12-27T18:19:04.998Z,9.80
2022-12-27T18:21:32.327Z,8.38
2022-12-27T18:24:00.273Z,6.00
2022-12-27T18:26:42.026Z,6.40
2022-12-27T18:29:12.288Z,6.13
2022-12-27T18:31:48.668Z,6.20
2022-12-27T18:34:40.248Z,6.20
2022-12-27T18:37:12.533Z,6.35
2022-12-27T18:39:50.041Z,6.20
2022-12-27T18:42:25.058Z,6.18
2022-12-27T18:44:57.565Z,6.35
2022-12-27T18:47:29.275Z,6.72
2022-12-27T18:49:59.880Z,6.43
2022-12-27T18:52:37.544Z,5.97
2022-12-27T18:55:26.812Z,6.05
2022-12-27T18:58:20.460Z,5.82
2022-12-27T19:00:52.394Z,5.93
2022-12-27T19:03:20.889Z,5.57
2022-12-27T19:06:08.861Z,5.70
2022-12-27T19:08:52.654Z,6.22
2022-12-27T19:11:33.175Z,6.38
2022-12-27T19:14:04.927Z,6.28
2022-12-27T19:16:34.981Z,6.53
2022-12-27T19:19:18.195Z,7.38
2022-12-27T19:21:45.248Z,7.05
2022-12-27T19:24:33.740Z,6.38
2022-12-27T19:27:16.306Z,6.18
2022-12-27T19:29:50.157Z,6.65
2022-12-27T19:32:36.051Z,6.43
2022-12-27T19:35:15.913Z,6.35
2022-12-27T19:37:44.313Z,6.30
2022-12-27T19:40:15.843Z,6.78
2022-12-27T19:42:44.929Z,6.30
2022-12-27T19:45:17.087Z,6.22
2022-12-27T19:47:48.846Z,6.43
2022-12-27T19:50:16.909Z,6.45
2022-12-27T19:52:47.447Z,6.38
2022-12-27T19:55:19.104Z,5.70
2022-12-27T19:57:51.270Z,5.90
2022-12-27T20:00:23.749Z,6.03
2022-12-27T20:02:52.734Z,5.63
2022-12-27T20:06:12.698Z,5.60
2022-12-27T20:08:27.663Z,5.93
2022-12-27T20:10:58.661Z,5.45
2022-12-27T20:13:29.155Z,5.55
2022-12-27T20:16:01.918Z,5.00
2022-12-27T20:18:31.931Z,5.15
2022-12-27T20:21:04.657Z,4.68
2022-12-27T20:24:11.541Z,4.80
2022-12-27T20:26:43.238Z,5.38
2022-12-27T20:29:14.415Z,5.47
2022-12-27T20:31:50.230Z,4.80
2022-12-27T20:34:20.575Z,4.60
2022-12-27T20:36:48.985Z,4.72
2022-12-27T20:39:18.483Z,4.72
2022-12-27T20:41:46.747Z,4.70
2022-12-27T20:44:16.811Z,4.88
2022-12-27T20:46:48.329Z,4.50
2022-12-27T20:49:18.343Z,4.25
2022-12-27T20:51:48.741Z,4.03
2022-12-27T20:54:21.022Z,4.70
2022-12-27T20:56:51.906Z,4.80
2022-12-27T20:59:22.777Z,4.07
2022-12-27T21:01:56.938Z,4.50
2022-12-27T21:04:26.834Z,4.35
2022-12-27T21:06:53.882Z,4.10
2022-12-27T21:09:20.839Z,3.88
2022-12-27T21:11:52.287Z,3.67
2022-12-27T21:14:19.511Z,3.90
2022-12-27T21:16:46.469Z,3.67
2022-12-27T21:19:13.318Z,4.00
2022-12-27T21:21:40.193Z,4.50
2022-12-27T21:24:08.650Z,3.67
2022-12-27T21:26:37.942Z,4.18
2022-12-27T21:29:07.106Z,3.50
2022-12-27T21:31:34.579Z,3.50
2022-12-27T21:34:01.988Z,3.42
2022-12-27T21:36:31.982Z,3.58
2022-12-27T21:38:59.206Z,3.72
2022-12-27T21:41:34.289Z,3.70
2022-12-27T21:44:01.299Z,3.95
2022-12-27T21:46:31.238Z,3.25
2022-12-27T21:49:03.568Z,3.90
2022-12-27T21:51:31.619Z,3.40
2022-12-27T21:53:58.924Z,3.30
2022-12-27T21:56:29.403Z,3.47
2022-12-27T21:58:57.924Z,3.50
2022-12-27T22:01:29.897Z,3.15
2022-12-27T22:03:58.611Z,3.08
2022-12-27T22:06:28.425Z,3.22
2022-12-27T22:08:57.889Z,3.25
2022-12-27T22:11:25.865Z,3.40
2022-12-27T22:13:52.828Z,3.38
2022-12-27T22:16:33.977Z,3.25
2022-12-27T22:19:01.397Z,3.22
2022-12-27T22:21:31.722Z,3.05
2022-12-27T22:24:00.116Z,2.92
2022-12-27T22:26:42.159Z,3.00
2022-12-27T22:29:09.092Z,3.17
2022-12-27T22:31:37.848Z,3.28
2022-12-27T22:34:06.449Z,3.05
2022-12-27T22:36:34.134Z,3.05
2022-12-27T22:39:01.835Z,2.78
2022-12-27T22:41:34.249Z,2.95
2022-12-27T22:44:03.684Z,2.78
2022-12-27T22:46:51.060Z,3.10
2022-12-27T22:49:18.135Z,3.50
2022-12-27T22:51:48.149Z,3.00
2022-12-27T22:54:15.051Z,2.67
2022-12-27T22:56:43.191Z,2.60
2022-12-27T22:59:16.206Z,3.03
2022-12-27T23:01:44.848Z,3.25
2022-12-27T23:04:13.555Z,2.80
2022-12-27T23:06:41.412Z,3.28
2022-12-27T23:09:08.633Z,3.25
2022-12-27T23:11:40.625Z,2.90
2022-12-27T23:14:15.550Z,2.65
2022-12-27T23:16:48.104Z,2.85
2022-12-27T23:19:17.541Z,3.28
2022-12-27T23:21:44.499Z,2.67
2022-12-27T23:24:11.903Z,2.63
2022-12-27T23:26:39.388Z,2.20
2022-12-27T23:29:06.799Z,2.65
2022-12-27T23:31:33.780Z,3.03
2022-12-27T23:34:00.651Z,2.88
2022-12-27T23:36:27.498Z,2.50
2022-12-27T23:38:55.292Z,2.83
2022-12-27T23:41:24.638Z,2.83
2022-12-27T23:43:54.314Z,2.55
2022-12-27T23:46:31.002Z,2.70
2022-12-27T23:48:59.637Z,2.60
2022-12-27T23:51:28.142Z,2.42
2022-12-27T23:53:54.979Z,2.35
2022-12-27T23:56:24.330Z,2.70
2022-12-27T23:58:53.229Z,2.60
